Time;durP1;ratioP1;P1;durP2;ratioP2;P2;SDS_P1;SDS_P2;PMS_P1;PMS_P2;Temp;Humidity;BMP_temperature;BMP_pressure;BME280_temperature;BME280_humidity;BME280_pressure;Samples;Min_cycle;Max_cycle;Signal;HPM_P1;HPM_P2
2022/05/31 00:00:56;;;;;;;8.52;3.83;;;;;;;-144.47;53.65;53392.41;5012700;28;20060;-86
2022/05/31 00:03:21;;;;;;;16.50;3.50;;;;;;;-144.47;53.72;53356.63;5012610;28;20021;-86
2022/05/31 00:05:46;;;;;;;18.42;4.43;;;;;;;-144.47;54.28;53368.56;5011102;28;20047;-86
2022/05/31 00:08:12;;;;;;;27.02;5.20;;;;;;;-144.47;54.60;53384.44;5010846;28;20415;-86
2022/05/31 00:10:37;;;;;;;22.55;4.50;;;;;;;-144.47;54.42;53336.78;5011378;28;20482;-87
2022/05/31 00:13:06;;;;;;;16.70;4.35;;;;;;;-144.47;54.29;53360.63;5013769;28;20499;-86
2022/05/31 00:15:32;;;;;;;12.40;4.00;;;;;;;-144.47;54.24;53376.50;5014235;28;20099;-87
2022/05/31 00:17:57;;;;;;;15.90;4.10;;;;;;;-144.47;54.49;53398.34;5013881;28;20668;-86
2022/05/31 00:20:23;;;;;;;17.48;4.18;;;;;;;-144.47;54.12;53368.56;5015349;28;20026;-86
2022/05/31 00:22:49;;;;;;;15.95;4.18;;;;;;;-144.47;53.88;53394.38;5014799;28;20064;-87
2022/05/31 00:25:15;;;;;;;7.75;3.47;;;;;;;-144.47;53.94;53380.47;5015346;28;20451;-85
2022/05/31 00:27:41;;;;;;;13.10;4.72;;;;;;;-144.47;54.06;53360.63;5020781;28;20482;-85
2022/05/31 00:30:07;;;;;;;20.50;4.63;;;;;;;-144.47;53.94;53360.63;5014399;28;20022;-84
2022/05/31 00:32:36;;;;;;;10.27;4.47;;;;;;;-144.47;54.13;53332.81;5014641;28;20026;-85
2022/05/31 00:35:26;;;;;;;11.60;3.95;;;;;;;-144.47;54.28;53370.53;5023353;28;20431;-85
2022/05/31 00:37:55;;;;;;;12.57;4.03;;;;;;;-144.47;54.30;53368.56;5014233;28;20451;-86
2022/05/31 00:40:23;;;;;;;9.98;3.53;;;;;;;-144.47;54.25;53344.72;5016148;28;20026;-85
2022/05/31 00:43:32;;;;;;;;;;;;;;;;;;;;;
2022/05/31 00:46:03;;;;;;;14.90;5.15;;;;;;;-144.47;54.35;53372.53;5015669;28;20029;-85
2022/05/31 00:48:38;;;;;;;9.80;4.22;;;;;;;-144.47;54.31;53364.59;5016658;28;20430;-85
2022/05/31 00:51:25;;;;;;;16.33;4.25;;;;;;;-144.47;54.46;53356.63;5019795;28;20023;-85
2022/05/31 00:54:00;;;;;;;9.88;4.28;;;;;;;-144.47;54.42;53342.72;5023630;28;20030;-85
2022/05/31 00:56:31;;;;;;;11.65;4.18;;;;;;;-144.47;54.91;53354.66;5021020;28;20118;-86
2022/05/31 00:59:06;;;;;;;13.45;4.13;;;;;;;-144.47;55.30;53326.84;5024957;28;20034;-85
2022/05/31 01:01:47;;;;;;;16.77;4.40;;;;;;;-144.47;55.55;53362.59;5027065;28;20094;-85
2022/05/31 01:04:14;;;;;;;17.05;3.88;;;;;;;-144.47;55.75;53374.50;5029112;28;20430;-84
2022/05/31 01:07:06;;;;;;;11.43;3.88;;;;;;;-144.47;55.97;53366.56;5026845;28;20091;-87
2022/05/31 01:09:54;;;;;;;9.60;4.22;;;;;;;-144.47;56.31;53358.63;5011210;28;20482;-86
2022/05/31 01:16:02;;;;;;;12.07;4.00;;;;;;;-144.47;56.81;53370.53;5006914;28;20098;-85
2022/05/31 01:18:53;;;;;;;14.05;3.80;;;;;;;-144.47;57.15;53350.69;5015999;28;20049;-86
2022/05/31 01:21:53;;;;;;;10.27;3.30;;;;;;;-144.47;57.48;53362.59;5017250;28;20038;-86
2022/05/31 01:24:20;;;;;;;14.82;4.32;;;;;;;-144.47;57.79;53374.50;5009290;28;20048;-85
2022/05/31 01:27:07;;;;;;;10.52;4.65;;;;;;;-144.47;57.96;53384.44;5015640;28;20107;-85
2022/05/31 01:33:25;;;;;;;12.32;4.57;;;;;;;-144.47;58.53;53380.47;4994629;28;20198;-86
2022/05/31 01:35:52;;;;;;;11.23;4.95;;;;;;;-144.47;58.71;53412.25;5020153;28;20034;-86
2022/05/31 01:38:24;;;;;;;12.40;4.47;;;;;;;-144.47;59.21;53398.34;5022229;28;20040;-86
2022/05/31 01:40:58;;;;;;;14.27;5.18;;;;;;;-144.47;59.20;53354.66;5022413;28;20036;-85
2022/05/31 01:43:24;;;;;;;16.20;5.28;;;;;;;-144.47;59.39;53408.28;5020693;28;20045;-84
2022/05/31 01:46:08;;;;;;;11.63;4.60;;;;;;;-144.47;59.86;53398.34;5023118;28;20049;-85
2022/05/31 01:48:37;;;;;;;27.75;5.80;;;;;;;-144.47;59.83;53368.56;5025682;28;20030;-86
2022/05/31 01:51:03;;;;;;;10.63;4.47;;;;;;;-144.47;60.17;53384.44;5022193;28;20028;-84
2022/05/31 01:53:32;;;;;;;15.43;4.70;;;;;;;-144.47;60.27;53386.44;5020951;28;20107;-85
2022/05/31 01:56:01;;;;;;;12.65;4.55;;;;;;;-144.47;59.99;53404.31;5021256;28;20046;-86
2022/05/31 01:58:32;;;;;;;17.15;5.35;;;;;;;-144.47;60.11;53392.41;5019419;28;20044;-85
2022/05/31 02:00:57;;;;;;;15.98;5.38;;;;;;;-144.47;60.68;53416.22;5013228;28;20017;-86
2022/05/31 02:03:23;;;;;;;11.10;5.72;;;;;;;-144.47;60.62;53406.31;5014792;28;20097;-86
2022/05/31 02:05:52;;;;;;;9.10;5.00;;;;;;;-144.47;60.72;53396.38;5014612;28;20105;-87
2022/05/31 02:08:20;;;;;;;23.60;5.88;;;;;;;-144.47;61.20;53398.34;5013691;28;20117;-87
2022/05/31 02:10:48;;;;;;;14.90;5.37;;;;;;;-144.47;61.56;53420.22;5014532;28;20072;-86
2022/05/31 02:13:16;;;;;;;15.70;6.43;;;;;;;-144.47;61.31;53384.44;5018892;28;20030;-85
2022/05/31 02:15:42;;;;;;;27.45;6.50;;;;;;;-144.47;61.45;53400.34;5020807;28;20025;-87
2022/05/31 02:18:09;;;;;;;16.13;5.60;;;;;;;-144.47;61.36;53398.34;5024862;28;20026;-85
2022/05/31 02:20:34;;;;;;;18.48;5.45;;;;;;;-144.47;61.29;53368.56;5026069;28;20028;-87
2022/05/31 02:23:05;;;;;;;23.30;6.57;;;;;;;-144.47;61.50;53394.38;5026854;28;20045;-87
2022/05/31 02:25:30;;;;;;;20.02;6.13;;;;;;;-144.47;61.95;53414.25;5026453;28;20022;-87
2022/05/31 02:27:58;;;;;;;21.75;6.88;;;;;;;-144.47;61.81;53396.38;5024789;28;20030;-86
2022/05/31 02:30:24;;;;;;;14.10;5.70;;;;;;;-144.47;62.02;53376.50;5022584;28;20032;-85
2022/05/31 02:32:50;;;;;;;13.00;5.88;;;;;;;-144.47;62.21;53378.50;5022667;28;20374;-85
2022/05/31 02:35:15;;;;;;;13.88;6.63;;;;;;;-144.47;62.65;53392.41;5023274;28;20030;-85
2022/05/31 02:37:41;;;;;;;17.83;6.20;;;;;;;-144.47;62.57;53390.41;5013766;28;20616;-86
2022/05/31 02:40:08;;;;;;;24.75;7.10;;;;;;;-144.47;62.77;53374.50;5012273;28;20033;-87
2022/05/31 02:42:36;;;;;;;20.08;9.27;;;;;;;-144.47;62.94;53354.66;5012227;28;20099;-87
2022/05/31 02:45:07;;;;;;;17.45;6.55;;;;;;;-144.47;63.09;53394.38;5014731;28;20051;-87
2022/05/31 02:47:37;;;;;;;12.07;5.85;;;;;;;-144.47;63.05;53424.19;5013193;28;20056;-86
2022/05/31 02:50:03;;;;;;;18.33;6.53;;;;;;;-144.47;63.29;53448.00;5015121;28;20088;-86
2022/05/31 02:52:28;;;;;;;15.75;6.38;;;;;;;-144.47;63.56;53398.34;5013938;28;20113;-85
2022/05/31 02:54:54;;;;;;;14.30;6.43;;;;;;;-144.47;63.69;53384.44;5013717;28;20029;-86
2022/05/31 02:57:19;;;;;;;23.42;6.95;;;;;;;-144.47;64.00;53384.44;5013595;28;20025;-87
2022/05/31 02:59:45;;;;;;;14.02;6.57;;;;;;;-144.47;64.27;53392.41;5015352;28;20508;-87
2022/05/31 03:02:11;;;;;;;15.65;6.22;;;;;;;-144.47;64.19;53366.56;5014467;28;20034;-86
2022/05/31 03:04:36;;;;;;;18.50;6.85;;;;;;;-144.47;64.49;53398.34;5014409;28;20034;-84
2022/05/31 03:07:05;;;;;;;20.15;7.35;;;;;;;-144.47;64.52;53424.19;5011943;28;20033;-86
2022/05/31 03:09:31;;;;;;;15.65;7.38;;;;;;;-144.47;64.74;53412.25;5013330;28;20037;-87
2022/05/31 03:12:11;;;;;;;18.42;7.93;;;;;;;-144.47;64.40;53422.19;5011359;28;20502;-87
2022/05/31 03:15:02;;;;;;;18.08;7.50;;;;;;;-144.47;64.27;53444.03;5013165;28;20052;-86
2022/05/31 03:17:38;;;;;;;18.10;5.85;;;;;;;-144.47;64.39;53420.22;5012181;28;20111;-85
2022/05/31 03:20:17;;;;;;;18.15;7.50;;;;;;;-144.47;64.35;53418.22;5012292;28;20021;-87
2022/05/31 03:23:02;;;;;;;;;;;;;;;-144.47;64.58;53412.25;5013058;28;20111;-87
2022/05/31 03:25:30;;;;;;;14.70;5.43;;;;;;;-144.47;64.62;53418.22;5010475;28;19921;-88
2022/05/31 03:28:01;;;;;;;19.10;6.47;;;;;;;-144.47;64.46;53452.00;5012336;28;20497;-87
2022/05/31 03:30:28;;;;;;;17.13;5.43;;;;;;;-144.47;63.98;53368.56;5010950;28;20116;-85
2022/05/31 03:32:58;;;;;;;13.65;5.45;;;;;;;-144.47;63.74;53406.31;5027476;28;20347;-86
2022/05/31 03:35:24;;;;;;;19.52;5.85;;;;;;;-144.47;63.56;53422.19;5014142;28;20462;-86
2022/05/31 03:37:49;;;;;;;21.83;5.97;;;;;;;-144.47;63.16;53396.38;5011736;28;20033;-84
2022/05/31 03:40:56;;;;;;;12.82;5.28;;;;;;;-144.47;63.30;53448.00;5016443;28;20028;-87
2022/05/31 03:43:04;;;;;;;17.85;5.57;;;;;;;-144.47;63.27;53402.31;5012723;28;20060;-86
2022/05/31 03:45:39;;;;;;;13.30;5.50;;;;;;;-144.47;62.83;53420.22;5014817;28;20036;-87
2022/05/31 03:48:06;;;;;;;15.15;5.07;;;;;;;-144.47;62.63;53404.31;5014682;28;20104;-87
2022/05/31 03:50:32;;;;;;;13.45;5.28;;;;;;;-144.47;62.40;53408.28;5028605;28;20077;-85
2022/05/31 03:52:58;;;;;;;17.48;5.43;;;;;;;-144.47;62.31;53400.34;5011889;28;20026;-84
2022/05/31 03:55:23;;;;;;;18.13;6.13;;;;;;;-144.47;62.53;53380.47;5012097;28;20462;-86
2022/05/31 03:57:50;;;;;;;18.67;6.20;;;;;;;-144.47;62.75;53402.31;5014308;28;20148;-86
2022/05/31 04:00:20;;;;;;;16.88;6.22;;;;;;;-144.47;62.75;53426.16;5016251;28;20435;-86
2022/05/31 04:02:45;;;;;;;;;;;;;;;-144.47;62.61;53392.41;5024823;28;20022;-88
2022/05/31 04:05:13;;;;;;;14.90;5.75;;;;;;;-144.47;62.88;53398.34;5014889;28;20012;-87
2022/05/31 04:07:42;;;;;;;13.87;6.80;;;;;;;-144.47;62.75;53434.09;5012774;28;20379;-87
2022/05/31 04:10:08;;;;;;;24.02;7.13;;;;;;;-144.47;62.71;53424.19;5014167;28;20026;-87
2022/05/31 04:12:37;;;;;;;16.35;6.05;;;;;;;-144.47;63.10;53420.22;5012293;28;20030;-88
2022/05/31 04:15:02;;;;;;;23.13;6.15;;;;;;;-144.47;62.99;53398.34;5013393;28;20094;-87
2022/05/31 04:17:31;;;;;;;20.42;6.32;;;;;;;-144.47;63.20;53376.50;5019189;28;20093;-87
2022/05/31 04:19:56;;;;;;;19.08;7.15;;;;;;;-144.47;63.35;53376.50;5019356;28;20113;-89
2022/05/31 04:22:24;;;;;;;22.02;6.78;;;;;;;-144.47;63.26;53378.50;5012901;28;20052;-88
2022/05/31 04:24:54;;;;;;;28.23;8.97;;;;;;;-144.47;63.22;53416.22;5013845;28;20025;-86
2022/05/31 04:27:22;;;;;;;17.52;7.00;;;;;;;-144.47;63.03;53364.59;5019432;28;20037;-86
2022/05/31 04:29:49;;;;;;;21.85;8.00;;;;;;;-144.47;62.78;53364.59;5026379;28;20106;-87
2022/05/31 04:32:16;;;;;;;34.70;8.23;;;;;;;-144.47;62.33;53396.38;5012508;28;20082;-85
2022/05/31 04:34:42;;;;;;;21.30;8.18;;;;;;;-144.47;62.19;53408.28;5011153;28;20530;-87
2022/05/31 04:37:08;;;;;;;15.73;7.20;;;;;;;-144.47;61.65;53406.31;5012547;28;20049;-89
2022/05/31 04:39:35;;;;;;;17.50;7.82;;;;;;;-144.47;61.34;53398.34;5011840;28;20128;-87
2022/05/31 04:42:07;;;;;;;16.05;7.25;;;;;;;-144.47;61.25;53380.47;5018995;28;20042;-89
2022/05/31 04:44:41;;;;;;;18.85;7.95;;;;;;;-144.47;60.61;53420.22;5014737;28;20025;-88
2022/05/31 04:47:09;;;;;;;20.13;7.90;;;;;;;-144.47;60.35;53380.47;5014937;28;20053;-88
2022/05/31 04:49:37;;;;;;;17.92;7.47;;;;;;;-144.47;59.57;53380.47;5013811;28;20030;-88
2022/05/31 04:52:05;;;;;;;27.30;8.52;;;;;;;-144.47;59.28;53408.28;5014589;28;20084;-86
2022/05/31 04:54:31;;;;;;;17.00;6.60;;;;;;;-144.47;58.65;53352.66;5012109;28;20029;-87
2022/05/31 04:57:04;;;;;;;19.23;7.65;;;;;;;-144.47;58.54;53426.16;5017888;28;20030;-86
2022/05/31 04:59:39;;;;;;;18.48;8.23;;;;;;;-144.47;57.74;53366.56;5032662;28;20033;-84
2022/05/31 05:02:09;;;;;;;20.30;8.05;;;;;;;-144.47;57.55;53372.53;5018613;28;20026;-87
2022/05/31 05:04:37;;;;;;;19.05;7.80;;;;;;;-144.47;56.97;53384.44;5018961;28;20022;-88
2022/05/31 05:07:04;;;;;;;14.18;7.53;;;;;;;-144.47;56.34;53386.44;5016699;28;20029;-89
2022/05/31 05:09:29;;;;;;;17.27;6.43;;;;;;;-144.47;55.89;53380.47;5015465;28;20049;-86
2022/05/31 05:11:55;;;;;;;26.20;7.38;;;;;;;-144.47;56.08;53358.63;5015302;28;20029;-86
2022/05/31 05:14:21;;;;;;;18.73;6.22;;;;;;;-144.47;56.52;53336.78;5015540;28;20053;-85
2022/05/31 05:17:03;;;;;;;;;;;;;;;;;;;;;
2022/05/31 05:19:38;;;;;;;29.77;7.78;;;;;;;-144.47;57.62;53384.44;5015133;28;20108;-85
2022/05/31 05:22:06;;;;;;;18.13;7.60;;;;;;;-144.47;56.98;53358.63;5014804;28;20021;-85
2022/05/31 05:24:31;;;;;;;14.77;6.93;;;;;;;-144.47;56.87;53376.50;5015875;28;20466;-85
2022/05/31 05:26:57;;;;;;;23.00;7.20;;;;;;;-144.47;56.84;53396.38;5018409;28;20029;-84
2022/05/31 05:32:08;;;;;;;21.08;7.28;;;;;;;-144.47;56.56;53354.66;5021526;28;20072;-85
2022/05/31 05:34:33;;;;;;;29.73;7.13;;;;;;;-144.47;56.79;53350.69;5019718;28;20029;-84
2022/05/31 05:37:12;;;;;;;19.73;6.85;;;;;;;-144.47;56.99;53382.47;5014786;28;20121;-85
2022/05/31 05:39:45;;;;;;;19.85;7.18;;;;;;;-144.47;57.10;53362.59;5014128;28;20040;-86
2022/05/31 05:42:14;;;;;;;20.45;7.55;;;;;;;-144.47;56.71;53374.50;5015839;28;20029;-85
2022/05/31 05:44:52;;;;;;;18.90;7.03;;;;;;;-144.47;56.57;53368.56;5015730;28;20033;-83
2022/05/31 05:47:19;;;;;;;15.50;6.60;;;;;;;-144.47;56.39;53340.75;5018040;28;20042;-85
2022/05/31 05:49:44;;;;;;;21.92;7.50;;;;;;;-144.47;56.53;53326.84;5014922;28;20488;-85
2022/05/31 05:52:15;;;;;;;31.90;8.32;;;;;;;-144.47;56.03;53320.88;5017146;28;20115;-85
2022/05/31 05:54:41;;;;;;;22.05;7.05;;;;;;;-144.47;56.00;53430.13;5014857;28;20108;-86
2022/05/31 05:57:06;;;;;;;19.48;7.82;;;;;;;-144.47;55.75;53322.88;5015565;28;20032;-85
2022/05/31 05:59:32;;;;;;;15.80;6.85;;;;;;;-144.47;55.41;53372.53;5018309;28;20434;-85
2022/05/31 06:02:03;;;;;;;19.88;7.28;;;;;;;-144.47;55.30;53358.63;5016709;28;20037;-84
2022/05/31 06:04:35;;;;;;;22.15;7.55;;;;;;;-144.47;55.37;53364.59;5016344;28;20439;-86
2022/05/31 06:07:14;;;;;;;17.35;7.40;;;;;;;-144.47;54.90;53376.50;5015938;28;20041;-86
2022/05/31 06:09:46;;;;;;;21.75;6.47;;;;;;;-144.47;54.90;53336.78;5012341;28;20440;-86
2022/05/31 06:12:17;;;;;;;17.95;5.72;;;;;;;-144.47;54.41;53374.50;5015886;28;20136;-89
2022/05/31 06:14:57;;;;;;;13.68;6.22;;;;;;;-144.47;53.96;53354.66;5011386;28;20048;-87
2022/05/31 06:17:34;;;;;;;14.10;5.70;;;;;;;-144.47;53.31;53378.50;5007412;28;20050;-85
2022/05/31 06:20:18;;;;;;;17.27;5.85;;;;;;;-144.47;52.35;53310.94;5013524;28;20053;-87
2022/05/31 06:22:44;;;;;;;20.45;6.60;;;;;;;-144.47;52.19;53320.88;5020882;28;20025;-88
2022/05/31 06:25:18;;;;;;;18.55;5.85;;;;;;;-144.47;52.05;53340.75;5017974;28;20116;-86
2022/05/31 06:28:05;;;;;;;18.48;7.18;;;;;;;-144.47;51.94;53352.66;5014797;28;20106;-86
2022/05/31 06:30:31;;;;;;;21.90;6.40;;;;;;;-144.47;51.76;53344.72;5026883;28;20172;-86
2022/05/31 06:32:59;;;;;;;22.45;5.82;;;;;;;-144.47;51.37;53322.88;5022195;28;20468;-88
2022/05/31 06:35:50;;;;;;;12.87;4.80;;;;;;;-144.47;50.97;53318.91;5020609;28;20034;-86
2022/05/31 06:38:21;;;;;;;13.13;4.60;;;;;;;-144.47;49.58;53340.75;5016102;28;20432;-87
2022/05/31 06:40:53;;;;;;;14.80;4.88;;;;;;;-144.47;48.71;53342.72;5013076;28;20034;-89
2022/05/31 06:44:34;;;;;;;17.38;4.38;;;;;;;-144.47;48.51;53336.78;5020806;28;20034;-89
2022/05/31 06:47:03;;;;;;;20.90;5.95;;;;;;;-144.47;48.82;53328.81;4975509;28;20141;-87
2022/05/31 06:49:35;;;;;;;13.30;4.70;;;;;;;-144.47;48.44;53324.84;4961823;28;20055;-86
2022/05/31 06:57:46;;;;;;;15.52;5.38;;;;;;;-144.47;47.58;53330.81;5017707;28;20073;-87
2022/05/31 07:00:19;;;;;;;11.40;4.03;;;;;;;-144.47;47.46;53328.81;5016838;28;20044;-86
2022/05/31 07:02:59;;;;;;;10.43;5.72;;;;;;;-144.47;46.85;53336.78;5024182;28;20052;-87
2022/05/31 07:05:30;;;;;;;14.30;4.70;;;;;;;-144.47;46.70;53303.00;5023972;28;20062;-87
2022/05/31 07:07:56;;;;;;;17.05;4.50;;;;;;;-144.47;47.00;53324.84;5023583;28;20017;-86
2022/05/31 07:10:28;;;;;;;14.25;5.00;;;;;;;-144.47;46.77;53320.88;5025184;28;20030;-87
2022/05/31 07:12:58;;;;;;;13.00;4.63;;;;;;;-144.47;46.68;53308.97;5008745;28;20030;-88
2022/05/31 07:15:33;;;;;;;16.20;4.43;;;;;;;-144.47;46.45;53308.97;5030180;28;20101;-87
2022/05/31 07:18:04;;;;;;;12.63;5.93;;;;;;;-144.47;46.38;53299.03;5023862;28;20077;-86
2022/05/31 07:20:37;;;;;;;10.73;4.85;;;;;;;-144.47;46.42;53281.16;5026305;28;20040;-87
2022/05/31 07:23:05;;;;;;;19.05;5.45;;;;;;;-144.47;46.88;53308.97;5004574;28;20027;-87
2022/05/31 07:25:37;;;;;;;12.85;5.28;;;;;;;-144.47;46.40;53310.94;5009679;28;20038;-87
2022/05/31 07:28:05;;;;;;;19.08;5.43;;;;;;;-144.47;46.92;53285.13;5015386;28;20030;-87
2022/05/31 07:30:30;;;;;;;15.18;5.35;;;;;;;-144.47;47.12;53352.66;5013011;28;20571;-86
2022/05/31 07:32:58;;;;;;;18.30;5.75;;;;;;;-144.47;47.40;53332.81;5013532;28;20033;-87
2022/05/31 07:35:24;;;;;;;14.83;5.27;;;;;;;-144.47;47.71;53295.06;5010154;28;20438;-86
2022/05/31 07:37:49;;;;;;;14.48;5.47;;;;;;;-144.47;48.54;53332.81;5012855;28;20272;-87
2022/05/31 07:40:15;;;;;;;25.63;6.03;;;;;;;-144.47;48.79;53279.16;5012389;28;20026;-86
2022/05/31 07:42:43;;;;;;;26.58;5.90;;;;;;;-144.47;48.69;53322.88;5013823;28;20037;-86
2022/05/31 07:45:09;;;;;;;13.75;6.60;;;;;;;-144.47;49.20;53299.03;5013068;28;20037;-86
2022/05/31 07:47:35;;;;;;;16.38;5.78;;;;;;;-144.47;48.88;53316.91;5012564;28;20447;-87
2022/05/31 07:50:01;;;;;;;17.33;5.43;;;;;;;-144.47;48.42;53267.25;5013144;28;20026;-86
2022/05/31 07:52:33;;;;;;;14.27;5.97;;;;;;;-144.47;48.49;53340.75;5012572;28;20449;-86
2022/05/31 07:55:01;;;;;;;9.27;5.00;;;;;;;-144.47;48.56;53352.66;5013729;28;20091;-87
2022/05/31 08:00:11;;;;;;;15.45;5.40;;;;;;;-144.47;48.41;53342.72;4999713;28;20441;-87
2022/05/31 08:02:37;;;;;;;9.38;4.47;;;;;;;-144.47;48.48;53295.06;5012746;28;20014;-85
2022/05/31 08:05:08;;;;;;;10.02;5.15;;;;;;;-144.47;48.29;53285.13;5014219;28;20351;-86
2022/05/31 08:07:39;;;;;;;14.48;5.43;;;;;;;-144.47;47.87;53328.81;5014043;28;20033;-86
2022/05/31 08:10:06;;;;;;;16.45;5.45;;;;;;;-144.47;47.96;53324.84;5012295;28;20489;-86
2022/05/31 08:12:34;;;;;;;10.90;5.00;;;;;;;-144.47;47.76;53295.06;5012848;28;20032;-85
2022/05/31 08:15:07;;;;;;;10.02;4.63;;;;;;;-144.47;48.13;53310.94;5014433;28;20028;-86
2022/05/31 08:17:45;;;;;;;10.82;4.72;;;;;;;-144.47;46.62;53322.88;5011326;28;20037;-87
2022/05/31 08:20:10;;;;;;;10.77;5.10;;;;;;;-144.47;46.36;53271.22;5011051;28;20403;-85
2022/05/31 08:22:36;;;;;;;10.57;4.80;;;;;;;-144.47;46.40;53320.88;5014064;28;20026;-87
2022/05/31 08:25:12;;;;;;;11.07;4.72;;;;;;;-144.47;46.27;53310.94;5015305;28;20034;-86
2022/05/31 08:27:42;;;;;;;11.65;4.03;;;;;;;-144.47;46.20;53324.84;5012596;28;20026;-87
2022/05/31 08:30:08;;;;;;;15.05;5.10;;;;;;;-144.47;45.78;53285.13;5012005;28;20017;-86
2022/05/31 08:32:36;;;;;;;11.75;4.50;;;;;;;-144.47;44.86;53308.97;5015519;28;20434;-85
2022/05/31 08:35:07;;;;;;;18.60;4.22;;;;;;;-144.47;44.68;53303.00;5019361;28;20029;-87
2022/05/31 08:37:33;;;;;;;13.40;3.90;;;;;;;-144.47;44.82;53271.22;5016660;28;20339;-86
2022/05/31 08:40:12;;;;;;;22.15;4.35;;;;;;;-144.47;44.76;53253.34;5028932;28;20091;-86
2022/05/31 08:42:59;;;;;;;13.02;4.38;;;;;;;-144.47;44.31;53301.03;5014588;28;20043;-87
2022/05/31 08:45:31;;;;;;;13.23;3.80;;;;;;;-144.47;44.21;53269.22;5014087;28;20034;-86
2022/05/31 08:48:40;;;;;;;11.68;4.15;;;;;;;-144.47;43.54;53269.22;5018362;28;20026;-86
2022/05/31 08:57:07;;;;;;;14.27;4.78;;;;;;;-144.47;44.11;53277.19;5004018;28;20068;-88
2022/05/31 08:59:41;;;;;;;11.48;4.53;;;;;;;-144.47;44.44;53271.22;5015339;28;20026;-86
2022/05/31 09:02:47;;;;;;;10.20;4.03;;;;;;;-144.47;44.00;53291.09;5014036;28;20146;-86
2022/05/31 09:05:40;;;;;;;19.83;4.88;;;;;;;-144.47;43.51;53265.25;5004048;28;20150;-87
2022/05/31 09:08:24;;;;;;;27.00;3.83;;;;;;;-144.47;43.16;53283.13;5014092;28;20030;-86
2022/05/31 09:10:57;;;;;;;11.35;4.00;;;;;;;-144.47;42.53;53285.13;5013591;28;20030;-87
2022/05/31 09:13:23;;;;;;;9.25;3.97;;;;;;;-144.47;41.82;53225.53;5018841;28;20110;-86
2022/05/31 09:15:53;;;;;;;15.82;3.83;;;;;;;-144.47;41.25;53273.22;5015990;28;20057;-85
2022/05/31 09:18:47;;;;;;;12.52;3.72;;;;;;;-144.47;40.26;53293.06;5016558;28;20021;-87
2022/05/31 09:21:25;;;;;;;12.60;3.22;;;;;;;-144.47;39.83;53277.19;5001299;28;20470;-87
2022/05/31 09:24:02;;;;;;;10.70;3.20;;;;;;;-144.47;40.10;53247.38;5015305;28;20036;-86
2022/05/31 09:27:05;;;;;;;14.63;3.88;;;;;;;-144.47;40.47;53285.13;5020039;28;20061;-86
2022/05/31 09:30:01;;;;;;;;;;;;;;;;;;;;;
2022/05/31 09:32:53;;;;;;;8.55;3.15;;;;;;;-144.47;40.55;53289.09;5017298;28;20428;-86
2022/05/31 09:35:56;;;;;;;8.68;3.60;;;;;;;-144.47;40.30;53271.22;5018831;28;20091;-86
2022/05/31 09:39:03;;;;;;;14.63;3.22;;;;;;;-144.47;40.44;53265.25;5015085;28;20014;-86
2022/05/31 09:41:54;;;;;;;9.30;3.63;;;;;;;-144.47;40.73;53281.16;5014654;28;20022;-86
2022/05/31 09:44:48;;;;;;;8.98;3.53;;;;;;;-144.47;39.64;53263.28;5015914;28;20049;-86
2022/05/31 09:47:25;;;;;;;12.98;3.53;;;;;;;-144.47;40.04;53310.94;5017061;28;20028;-86
2022/05/31 09:50:04;;;;;;;;;;;;;;;;;;;;;
2022/05/31 09:52:50;;;;;;;7.90;2.92;;;;;;;-144.47;39.90;53261.28;5014730;28;20118;-86
2022/05/31 09:58:36;;;;;;;11.80;3.83;;;;;;;-144.47;39.83;53293.06;5016228;28;20032;-87
2022/05/31 10:01:26;;;;;;;12.30;3.80;;;;;;;-144.47;39.61;53263.28;5019232;28;20029;-86
2022/05/31 10:04:29;;;;;;;14.25;3.45;;;;;;;-144.47;38.79;53269.22;5019632;28;20061;-86
2022/05/31 10:07:08;;;;;;;10.43;3.10;;;;;;;-144.47;38.19;53253.34;5008292;28;20048;-86
2022/05/31 10:12:53;;;;;;;8.45;2.90;;;;;;;-144.47;37.82;53237.44;5015909;28;20048;-87
2022/05/31 10:15:51;;;;;;;7.30;3.13;;;;;;;-144.47;37.85;53249.38;5014876;28;20022;-85
2022/05/31 10:18:34;;;;;;;;;;;;;;;-144.47;37.80;53269.22;5016546;28;20095;-87
2022/05/31 10:21:13;;;;;;;8.82;3.35;;;;;;;-144.47;37.52;53237.44;5015478;28;19920;-87
2022/05/31 10:23:45;;;;;;;11.68;3.10;;;;;;;-144.47;37.75;53263.28;5016003;28;20028;-88
2022/05/31 10:26:33;;;;;;;10.93;2.58;;;;;;;-144.47;37.05;53217.59;5014248;28;20037;-86
2022/05/31 10:29:07;;;;;;;13.75;3.35;;;;;;;-144.47;37.00;53215.59;5018587;28;20053;-86
2022/05/31 10:31:35;;;;;;;11.80;2.58;;;;;;;-144.47;36.35;53215.59;5019174;28;20038;-85
2022/05/31 10:34:05;;;;;;;10.02;2.95;;;;;;;-144.47;36.34;53201.69;5018144;28;20034;-87
2022/05/31 10:36:45;;;;;;;9.07;2.70;;;;;;;-144.47;35.73;53245.41;5002056;28;20421;-87
2022/05/31 10:39:23;;;;;;;6.57;2.30;;;;;;;-144.47;35.72;53231.50;5013608;28;20084;-86
2022/05/31 10:41:54;;;;;;;4.07;1.70;;;;;;;-144.47;33.21;53231.50;5015556;28;20026;-86
2022/05/31 10:44:35;;;;;;;6.15;2.17;;;;;;;-144.47;34.89;53239.44;5015445;28;20076;-85
2022/05/31 10:47:18;;;;;;;8.80;1.80;;;;;;;-144.47;33.10;53193.75;5015454;28;20072;-86
2022/05/31 10:49:49;;;;;;;6.32;1.88;;;;;;;-144.47;30.81;53185.81;5013525;28;20032;-86
2022/05/31 10:52:50;;;;;;;5.95;1.63;;;;;;;-144.47;30.38;53231.50;5013311;28;20545;-86
2022/05/31 10:55:38;;;;;;;5.47;1.75;;;;;;;-144.47;30.52;53225.53;5010612;28;20101;-87
2022/05/31 10:58:21;;;;;;;9.23;1.70;;;;;;;-144.47;29.62;53201.69;5011476;28;20026;-87
2022/05/31 11:01:15;;;;;;;6.47;1.60;;;;;;;-144.47;29.34;53207.66;5016567;28;20033;-87
2022/05/31 11:03:56;;;;;;;5.95;1.73;;;;;;;-144.47;29.47;53223.56;5015560;28;20093;-87
2022/05/31 11:06:32;;;;;;;2.65;1.35;;;;;;;-144.47;29.81;53193.75;5018335;28;20477;-86
2022/05/31 11:12:15;;;;;;;4.03;1.58;;;;;;;-144.47;29.65;53249.38;5006568;28;20036;-86
2022/05/31 11:15:01;;;;;;;4.18;1.58;;;;;;;-144.47;30.46;53193.75;5015579;28;20078;-86
2022/05/31 11:18:05;;;;;;;7.80;1.90;;;;;;;-144.47;30.09;53211.63;5014858;28;20308;-87
2022/05/31 11:21:06;;;;;;;4.38;1.42;;;;;;;-144.47;30.41;53189.78;5013911;28;20030;-85
2022/05/31 11:23:59;;;;;;;3.80;1.60;;;;;;;-144.47;29.31;53185.81;5012465;28;20026;-86
2022/05/31 11:26:53;;;;;;;3.08;1.65;;;;;;;-144.47;28.66;53191.78;5002256;28;20044;-89
2022/05/31 11:29:57;;;;;;;3.60;1.58;;;;;;;-144.47;28.75;53169.91;5012828;28;20110;-88
2022/05/31 11:32:49;;;;;;;4.07;1.50;;;;;;;-144.47;28.34;53193.75;4983245;28;20037;-87
2022/05/31 11:35:53;;;;;;;4.38;1.48;;;;;;;-144.47;28.55;53203.69;5013403;28;20034;-85
2022/05/31 11:38:47;;;;;;;5.03;1.60;;;;;;;-144.47;28.72;53189.78;5014059;28;20030;-86
2022/05/31 11:41:42;;;;;;;3.15;1.40;;;;;;;-144.47;28.64;53193.75;5006600;28;20137;-86
2022/05/31 11:44:45;;;;;;;12.93;1.70;;;;;;;-144.47;29.06;53158.00;5002070;28;20025;-86
2022/05/31 11:47:47;;;;;;;5.90;1.52;;;;;;;-144.47;29.20;53165.94;5013206;28;20046;-86
2022/05/31 11:50:36;;;;;;;6.63;1.75;;;;;;;-144.47;28.72;53209.66;5013060;28;20427;-86
2022/05/31 11:53:20;;;;;;;4.47;1.25;;;;;;;-144.47;28.96;53148.06;4934673;29;20067;-85
2022/05/31 11:56:02;;;;;;;15.88;2.20;;;;;;;-144.47;27.73;53181.84;4926661;29;20111;-87
2022/05/31 11:59:06;;;;;;;6.38;2.17;;;;;;;-144.47;28.23;53203.69;4904078;29;20131;-87
2022/05/31 12:01:41;;;;;;;4.40;1.80;;;;;;;-144.47;28.92;53140.13;4937145;29;20444;-86
2022/05/31 12:04:33;;;;;;;7.65;1.90;;;;;;;-144.47;28.77;53160.00;4943643;29;20062;-86
2022/05/31 12:07:29;;;;;;;4.93;2.20;;;;;;;-144.47;29.43;53177.88;4959122;28;20571;-88
2022/05/31 12:10:08;;;;;;;9.27;1.88;;;;;;;-144.47;29.48;53177.88;4938267;29;20036;-86
2022/05/31 12:12:37;;;;;;;16.35;2.33;;;;;;;-144.47;28.81;53171.91;4941642;29;20148;-87
2022/05/31 12:15:22;;;;;;;6.43;2.20;;;;;;;-144.47;28.20;53181.84;4926534;29;20366;-87
2022/05/31 12:18:12;;;;;;;9.43;2.17;;;;;;;-144.47;28.66;53160.00;4942453;29;20035;-87
2022/05/31 12:24:10;;;;;;;8.10;1.92;;;;;;;-144.47;28.43;53169.91;4942913;29;20047;-86
2022/05/31 12:26:45;;;;;;;5.90;1.80;;;;;;;-144.47;28.20;53152.03;4923926;29;20034;-88
2022/05/31 12:29:20;;;;;;;15.35;2.50;;;;;;;-144.47;27.63;53191.78;4951958;28;20044;-87